• Join FlightAware (Why Join?)
  • Login
  • US Flag 
10:38AM EDT


 

Airport Tracker/Info


-or-


 

Live Flight TrackerFlight Track Log ✈ N770PJ ✈ 11-Aug-2013 ✈ KSAT - MMAN / NTR

Flight Track Log - Related Links

Times and Time Zones

All times are in EDT time to prevent confusion due to time zone crossing. See the N770PJ flight status page for this flight to view local times or setup timezone preferences in your user account.

Time Position Orientation Groundspeed Altitude Reporting Facility
EDT Latitude Longitude Course Direction KTS MPH feet Rate Location/Type
08:28PM 29.5247 -98.4636 147° Southeast 152 175 1,600  Level Houston Center
08:30PM 29.4856 -98.4339 147° Southeast 186 214 4,300 2,220 Climbing Houston Center
08:31PM 29.4178 -98.4483 191° South 248 285 6,400 2,460 Climbing Houston Center
08:32PM 29.3361 -98.4814 199° South 293 337 9,500 2,700 Climbing Houston Center
08:33PM 29.2692 -98.5303 213° Southwest 286 329 12,100 1,980 Climbing Houston Center
08:34PM 29.1939 -98.5897 215° Southwest 336 387 13,600 2,100 Climbing Houston Center
08:35PM 29.1033 -98.6394 206° Southwest 335 386 16,500 2,340 Climbing Houston Center
08:36PM 29.0217 -98.6847 206° Southwest 327 376 18,400 1,800 Climbing Houston Center
08:37PM 28.9294 -98.7367 206° Southwest 342 394 20,300 1,800 Climbing Houston Center
08:38PM 28.8444 -98.7856 207° Southwest 341 392 22,200 1,320 Climbing Houston Center
08:39PM 28.7553 -98.8358 206° Southwest 356 410 23,100 900 Climbing Houston Center
08:40PM 28.6708 -98.8825 206° Southwest 373 429 24,100 1,500 Climbing Houston Center
08:41PM 28.5783 -98.9342 206° Southwest 371 427 26,200 1,500 Climbing Houston Center
08:42PM 28.4733 -98.9911 205° Southwest 351 404 27,300 780 Climbing Houston Center
08:43PM 28.3792 -99.0453 207° Southwest 371 427 27,900 240 Climbing Houston Center
08:44PM 28.2806 -99.1008 206° Southwest 391 450 27,900  Level Houston Center
08:45PM 28.1753 -99.1594 206° Southwest 417 480 28,000 60 Climbing Houston Center
08:46PM 28.0658 -99.2203 206° Southwest 433 498 28,100  Climbing Houston Center
08:47PM 27.9550 -99.2833 207° Southwest 444 511 28,000 -60 Descending Houston Center
08:48PM 27.8194 -99.3589 206° Southwest 453 521 28,000  Level Houston Center
08:49PM 27.7069 -99.4214 206° Southwest 455 524 28,100  Climbing Houston Center
08:50PM 27.5936 -99.4836 206° Southwest 456 525 28,100  Level Houston Center
08:52PM 27.4767 -99.5354 249° West  Level Estimated
08:59PM 26.9078 -99.7203 197° South  Level FlightAware Approximate
09:00PM 26.8210 -99.7502 197° South  Level FlightAware Approximate
09:01PM 26.7341 -99.7800 197° South  Level FlightAware Approximate
09:02PM 26.6473 -99.8098 197° South  Level FlightAware Approximate
09:03PM 26.5604 -99.8395 197° South  Level FlightAware Approximate
09:04PM 26.4736 -99.8692 197° South  Level FlightAware Approximate
09:05PM 26.3867 -99.8988 197° South  Level FlightAware Approximate
09:06PM 26.2990 -99.9253 195° South  Level FlightAware Approximate
09:07PM 26.2114 -99.9518 197° South  Level FlightAware Approximate
09:08PM 26.1244 -99.9808 197° South  Level FlightAware Approximate
09:09PM 26.0374 -100.0098 197° South  Level FlightAware Approximate
09:10PM 25.9498 -100.0367 195° South  Level FlightAware Approximate
09:11PM 25.8621 -100.0630 195° South  Level FlightAware Approximate
09:12PM 25.7764 -100.0961 200° South  Level FlightAware Approximate
09:13PM 25.8177 -100.1687 299° West  Level FlightAware Approximate
09:14PM 25.8656 -100.2372 318° Northwest  Level Estimated
09:15PM 25.8656 -100.2372 318° Northwest  Level Estimated
09:16PM 25.8656 -100.2372 318° Northwest  Level Estimated
09:17PM 25.8656 -100.2372 318° Northwest  Level Estimated
09:18PM 25.8656 -100.2372 318° Northwest  Level Estimated
09:19PM 25.8656 -100.2372 318° Northwest  Level Estimated
09:20PM 25.8656 -100.2372 318° Northwest  Level Estimated
09:21PM 25.8656 -100.2372 318° Northwest  Level Estimated
09:22PM 25.8656 -100.2372 318° Northwest  Level Estimated
09:23PM 25.8656 -100.2372 318° Northwest  Level Estimated
09:24PM 25.8656 -100.2372 318° Northwest  Level Estimated
09:25PM 25.8656 -100.2372 318° Northwest  Level Estimated
09:26PM 25.8656 -100.2372 318° Northwest  Level Estimated
09:27PM 25.8656 -100.2372 318° Northwest  Level Estimated
09:28PM 25.8656 -100.2372 318° Northwest  Level Estimated
09:29PM 25.8656 -100.2372 318° Northwest  Level Estimated
09:30PM 25.8656 -100.2372 318° Northwest  Level Estimated
09:31PM 25.8656 -100.2372 318° Northwest  Level Estimated